Albany, VT

6:37 PM EST on February 09, 2016 (GMT -0500)
Newport State

Weather History for KEFK - February, 2014

Change the Weather History Date:

Friday, February 14, 2014

  Actual Average Record
Temperature  
Mean Temperature 24 °F -  
Max Temperature 26 °F 27 °F 50 °F (1946)
Min Temperature 22 °F 6 °F -25 °F (1987)
Degree Days  
Heating Degree Days 41    
Moisture  
Dew Point 19 °F    
Average Humidity 79    
Maximum Humidity 86    
Minimum Humidity 71    
Precipitation  
Precipitation 0.00 in - - ()
Sea Level Pressure  
Sea Level Pressure 29.22 in    
Wind  
Wind Speed 15 mph (NW)    
Max Wind Speed 22 mph    
Max Gust Speed 30 mph    
Visibility 3 miles    
Events Snow    
Averages and records for this station are not official NWS values.
T = Trace of Precipitation, MM = Missing Value Source: NWS Daily Summary

Daily Weather History Graph

Daily Weather History Graph

Search for Another Location

Airport or City:

Trip Planner

Search our weather history database for the weather conditions in past years. The results will help you decide how hot, cold, wet, or windy it might be!

Date:

Astronomy

Feb. 14, 2014 Rise Set
Actual Time 6:51 AM EST 5:15 PM EST
Civil Twilight 6:20 AM EST 5:45 PM EST
Nautical Twilight 5:46 AM EST 6:20 PM EST
Astronomical Twilight 5:12 AM EST 6:54 PM EST
Moon 5:19 PM EST (2/14) 6:15 AM EST (2/14)
Length of Visible Light 11h 24m
Length of Day
10h 24m
Full, 100% of the Moon is Illuminated
Feb 14
Full
Feb 14
Full
Feb 22
Last Quarter
Mar 1
New
Mar 8
First Quarter

Hourly Weather History & Observations

Time (EST) Temp. Windchill Dew Point Humidity Pressure Visibility Wind Dir Wind Speed Gust Speed Precip Events Conditions
12:15 AM 25.7 °F 13.1 °F 21.6 °F 84% 29.29 in 3.0 mi North 16.1 mph 23.0 mph N/A Snow Light Snow
12:35 AM 25.7 °F 11.9 °F 21.6 °F 84% 29.26 in 2.5 mi North 19.6 mph 24.2 mph N/A Snow Light Snow
12:55 AM 25.9 °F 11.4 °F 21.6 °F 84% 29.22 in 2.0 mi North 21.9 mph 25.3 mph N/A Snow Light Snow
1:15 AM 26.1 °F 12.0 °F 21.7 °F 84% 29.20 in 2.0 mi North 20.7 mph 27.6 mph N/A Snow Light Snow
1:35 AM 26.1 °F 12.3 °F 21.6 °F 83% 29.18 in 2.0 mi North 19.6 mph 25.3 mph N/A Snow Light Snow
1:55 AM 26.1 °F 11.6 °F 21.6 °F 83% 29.15 in 2.0 mi North 21.9 mph 29.9 mph N/A Snow Light Snow
2:15 AM 26.1 °F 12.0 °F 21.6 °F 83% 29.12 in 1.5 mi North 20.7 mph 27.6 mph N/A Snow Light Snow
2:35 AM 26.1 °F 13.1 °F 21.6 °F 83% 29.10 in 1.8 mi North 17.3 mph 27.6 mph N/A Snow Light Snow
2:55 AM 26.1 °F 12.0 °F 21.7 °F 84% 29.08 in 1.8 mi North 20.7 mph 26.5 mph N/A Snow Light Snow
3:15 AM 26.2 °F 13.0 °F 21.7 °F 83% 29.06 in 1.5 mi North 18.4 mph 26.5 mph N/A Snow Light Snow
3:35 AM 26.2 °F 12.6 °F 21.9 °F 84% 29.04 in 1.2 mi North 19.6 mph 26.5 mph N/A Snow Light Snow
3:55 AM 26.4 °F 13.2 °F 22.1 °F 84% 29.03 in 1.5 mi North 18.4 mph 25.3 mph N/A Snow Light Snow
4:15 AM 26.6 °F 13.1 °F 22.1 °F 83% 29.02 in 1.2 mi North 19.6 mph 28.8 mph N/A Snow Light Snow
4:35 AM 26.6 °F 13.4 °F 22.5 °F 84% 29.01 in 1.0 mi North 18.4 mph 24.2 mph N/A Snow Snow
4:55 AM 26.6 °F 13.8 °F 22.5 °F 84% 29.00 in 1.0 mi North 17.3 mph 23.0 mph N/A Snow Snow
5:15 AM 26.2 °F 13.8 °F 22.3 °F 85% 29.00 in 0.5 mi NNW 16.1 mph 24.2 mph N/A Snow Heavy Snow
5:35 AM 26.1 °F 14.5 °F 22.1 °F 85% 28.99 in 0.5 mi NNW 13.8 mph - N/A Snow Heavy Snow
5:55 AM 25.9 °F 13.8 °F 22.1 °F 86% 28.99 in 0.5 mi NNW 15.0 mph - N/A Snow Heavy Snow
6:15 AM 25.7 °F 14.6 °F 21.7 °F 85% 28.99 in 0.5 mi NNW 12.7 mph 20.7 mph N/A Snow Heavy Snow
6:35 AM 25.7 °F 13.1 °F 21.7 °F 85% 28.99 in 0.5 mi NNW 16.1 mph 21.9 mph N/A Snow Heavy Snow
6:55 AM 25.3 °F 11.8 °F 21.4 °F 85% 28.99 in 0.2 mi NNW 18.4 mph 26.5 mph N/A Snow Heavy Snow
7:15 AM 25.3 °F 12.2 °F 21.2 °F 84% 28.99 in 0.5 mi NNW 17.3 mph 27.6 mph N/A Snow Heavy Snow
7:35 AM 25.3 °F 12.2 °F 21.2 °F 84% 28.99 in 0.2 mi NNW 17.3 mph 27.6 mph N/A Snow Heavy Snow
7:55 AM 25.2 °F 11.6 °F 20.8 °F 84% 28.98 in - NNW 18.4 mph 26.5 mph N/A   Overcast
8:15 AM 25.0 °F 11.3 °F 20.3 °F 82% 28.98 in 0.5 mi NNW 18.4 mph 28.8 mph N/A Snow Snow
8:35 AM 24.8 °F 10.7 °F 20.1 °F 82% 28.98 in 0.5 mi NNW 19.6 mph 26.5 mph N/A Snow Snow
8:55 AM 24.8 °F 11.1 °F 20.3 °F 83% 28.98 in 0.5 mi NNW 18.4 mph 24.2 mph N/A Snow Snow
9:15 AM 25.3 °F 14.7 °F 20.7 °F 82% 28.99 in 0.5 mi NW 11.5 mph - N/A Snow Snow
9:35 AM 25.3 °F 13.6 °F 19.9 °F 80% 29.00 in 0.8 mi NW 13.8 mph - N/A Snow Light Snow
9:55 AM 24.8 °F 13.4 °F 19.4 °F 80% 29.00 in 1.0 mi NW 12.7 mph 23.0 mph N/A Snow Light Snow
10:15 AM 24.8 °F 11.9 °F 19.2 °F 79% 29.01 in 1.8 mi NW 16.1 mph 24.2 mph N/A Snow Light Snow
10:35 AM 25.3 °F 12.6 °F 19.4 °F 78% 29.02 in 1.8 mi NW 16.1 mph 25.3 mph N/A Snow Light Snow
10:55 AM 25.2 °F 12.4 °F 19.4 °F 79% 29.03 in 1.0 mi NW 16.1 mph 21.9 mph N/A Snow Light Snow
11:15 AM 25.5 °F 13.8 °F 19.2 °F 77% 29.05 in 1.8 mi WNW 13.8 mph 23.0 mph N/A Snow Light Snow
11:35 AM 25.7 °F 14.0 °F 19.4 °F 77% 29.06 in 1.2 mi NW 13.8 mph 21.9 mph N/A Snow Light Snow
11:55 AM 24.4 °F 12.4 °F 18.3 °F 78% 29.07 in 1.0 mi WNW 13.8 mph 24.2 mph N/A Snow Light Snow
12:15 PM 24.3 °F 10.8 °F 18.1 °F 77% 29.08 in 0.8 mi WNW 17.3 mph 25.3 mph N/A Snow Light Snow
12:35 PM 23.9 °F 10.8 °F 17.6 °F 77% 29.10 in 1.0 mi WNW 16.1 mph 29.9 mph N/A Snow Light Snow
12:55 PM 23.9 °F 11.2 °F 17.6 °F 77% 29.11 in 1.8 mi WNW 15.0 mph 24.2 mph N/A Snow Light Snow
1:15 PM 24.4 °F 10.2 °F 17.2 °F 74% 29.13 in 2.5 mi WNW 19.6 mph 28.8 mph N/A Snow Light Snow
1:35 PM 24.8 °F 13.4 °F 18.5 °F 77% 29.15 in 2.5 mi WNW 12.7 mph 25.3 mph N/A Snow Light Snow
1:55 PM 24.8 °F 11.9 °F 18.7 °F 78% 29.16 in 0.8 mi WNW 16.1 mph 23.0 mph N/A Snow Light Snow
2:15 PM 24.6 °F 10.9 °F 18.0 °F 76% 29.18 in 1.5 mi WNW 18.4 mph 24.2 mph N/A Snow Light Snow
2:35 PM 24.3 °F 13.9 °F 18.3 °F 78% 29.20 in 0.8 mi WNW 10.4 mph 16.1 mph N/A Snow Light Snow
2:55 PM 23.9 °F 14.2 °F 18.5 °F 80% 29.21 in 0.5 mi WNW 9.2 mph - N/A Snow Snow
3:15 PM 24.3 °F 14.6 °F 19.4 °F 82% 29.23 in 0.5 mi WNW 9.2 mph - N/A Snow Snow
3:35 PM 24.1 °F 13.7 °F 18.5 °F 79% 29.25 in 0.8 mi WNW 10.4 mph 21.9 mph N/A Snow Light Snow
3:55 PM 23.9 °F 12.9 °F 17.6 °F 77% 29.26 in 1.5 mi WNW 11.5 mph 23.0 mph N/A Snow Light Snow
4:15 PM 23.9 °F 10.8 °F 16.9 °F 75% 29.28 in 2.0 mi WNW 16.1 mph 25.3 mph N/A Snow Light Snow
4:35 PM 23.0 °F 11.1 °F 16.7 °F 77% 29.30 in 1.5 mi WNW 12.7 mph 23.0 mph N/A Snow Light Snow
4:55 PM 23.4 °F 13.5 °F 16.3 °F 75% 29.33 in 3.0 mi West 9.2 mph 19.6 mph N/A Snow Light Snow
5:15 PM 23.5 °F 13.7 °F 16.5 °F 75% 29.35 in 3.0 mi West 9.2 mph - N/A Snow Light Snow
5:35 PM 23.0 °F 15.8 °F 16.7 °F 77% 29.37 in 2.5 mi WSW 5.8 mph - N/A Snow Light Snow
5:55 PM 23.0 °F 17.0 °F 16.7 °F 77% 29.39 in 2.5 mi West 4.6 mph - N/A Snow Light Snow
6:15 PM 23.0 °F 18.4 °F 17.1 °F 78% 29.42 in 3.0 mi SSW 3.5 mph - N/A Snow Light Snow
6:35 PM 22.8 °F - 17.1 °F 79% 29.43 in 3.0 mi Calm Calm - N/A Snow Light Snow
6:55 PM 23.0 °F 17.0 °F 17.1 °F 78% 29.45 in 3.0 mi WSW 4.6 mph - N/A Snow Light Snow
7:15 PM 23.5 °F 16.4 °F 17.1 °F 76% 29.47 in 2.5 mi West 5.8 mph - N/A Snow Light Snow
7:35 PM 23.4 °F 12.8 °F 16.5 °F 75% 29.49 in 5.0 mi WNW 10.4 mph 16.1 mph N/A Snow Light Snow
7:55 PM 23.0 °F 17.0 °F 16.3 °F 76% 29.51 in 4.0 mi NW 4.6 mph - N/A Snow Light Snow
8:15 PM 22.8 °F - 15.6 °F 74% 29.53 in 10.0 mi Calm Calm - N/A   Overcast
8:35 PM 23.2 °F 18.7 °F 15.3 °F 72% 29.55 in 10.0 mi WSW 3.5 mph - N/A   Overcast
8:55 PM 23.7 °F - 15.6 °F 71% 29.56 in 10.0 mi Calm Calm - N/A   Overcast
9:15 PM 23.9 °F 19.5 °F 15.8 °F 71% 29.58 in 7.0 mi SSE 3.5 mph - N/A Snow Light Snow
9:35 PM 23.9 °F - 16.2 °F 72% 29.58 in 5.0 mi Calm Calm - N/A Snow Light Snow
9:55 PM 23.9 °F 14.2 °F 16.3 °F 73% 29.59 in 3.0 mi West 9.2 mph - N/A Snow Light Snow
10:15 PM 23.9 °F 15.0 °F 16.2 °F 72% 29.60 in 7.0 mi West 8.1 mph - N/A   Mostly Cloudy
10:35 PM 23.7 °F - 15.8 °F 72% 29.62 in 10.0 mi Calm Calm - N/A   Mostly Cloudy
10:55 PM 23.9 °F - 16.0 °F 72% 29.62 in 10.0 mi Calm Calm - N/A   Overcast
11:15 PM 23.9 °F - 16.0 °F 72% 29.63 in 10.0 mi Calm Calm - N/A   Overcast
11:35 PM 23.9 °F - 16.3 °F 73% 29.63 in 10.0 mi Calm Calm - N/A   Overcast
11:55 PM 23.7 °F - 16.3 °F 73% 29.63 in 10.0 mi Calm Calm - N/A   Overcast